createdAt,value
2022-12-22T00:02:02.163Z,7.00
2022-12-22T00:04:47.604Z,7.10
2022-12-22T00:07:33.002Z,7.10
2022-12-22T00:10:18.452Z,7.10
2022-12-22T00:13:08.500Z,7.20
2022-12-22T00:15:54.270Z,7.20
2022-12-22T00:18:39.731Z,7.20
2022-12-22T00:21:30.390Z,7.30
2022-12-22T00:24:16.945Z,7.30
2022-12-22T00:27:03.193Z,7.30
2022-12-22T00:29:55.937Z,7.40
2022-12-22T00:32:42.407Z,7.40
2022-12-22T00:35:32.534Z,7.50
2022-12-22T00:38:17.800Z,7.50
2022-12-22T00:41:03.259Z,7.60
2022-12-22T00:43:48.713Z,7.60
2022-12-22T00:46:36.481Z,7.60
2022-12-22T00:49:21.863Z,7.60
2022-12-22T00:52:09.338Z,7.60
2022-12-22T00:54:54.586Z,7.70
2022-12-22T00:57:41.506Z,7.70
2022-12-22T01:00:34.619Z,8.90
2022-12-22T01:03:20.209Z,7.70
2022-12-22T01:06:05.721Z,7.70
2022-12-22T01:08:54.078Z,7.70
2022-12-22T01:11:39.444Z,7.80
2022-12-22T01:14:31.397Z,7.80
2022-12-22T01:17:21.775Z,7.80
2022-12-22T01:20:07.157Z,7.90
2022-12-22T01:22:52.669Z,7.80
2022-12-22T01:25:37.982Z,7.80
2022-12-22T01:28:23.941Z,7.80
2022-12-22T01:31:09.330Z,7.80
2022-12-22T01:33:57.053Z,7.80
2022-12-22T01:36:42.630Z,7.80
2022-12-22T01:39:27.934Z,7.90
2022-12-22T01:42:13.291Z,7.90
2022-12-22T01:45:01.358Z,7.90
2022-12-22T01:47:46.708Z,7.90
2022-12-22T01:51:02.139Z,7.90
2022-12-22T01:53:48.032Z,7.90
2022-12-22T01:56:33.481Z,7.90
2022-12-22T01:59:22.355Z,7.90
2022-12-22T02:02:09.788Z,7.90
2022-12-22T02:05:03.070Z,8.00
2022-12-22T02:08:22.221Z,8.00
2022-12-22T02:11:36.664Z,8.00
2022-12-22T02:14:58.162Z,8.00
2022-12-22T02:17:50.720Z,8.00
2022-12-22T02:20:57.663Z,8.00
2022-12-22T02:23:45.508Z,8.00
2022-12-22T02:26:54.542Z,8.00
2022-12-22T02:29:46.172Z,8.00
2022-12-22T02:32:32.240Z,8.10
2022-12-22T02:35:17.648Z,8.10
2022-12-22T02:38:32.414Z,8.10
2022-12-22T02:41:26.428Z,8.10
2022-12-22T02:44:34.922Z,8.10
2022-12-22T02:47:49.039Z,8.10
2022-12-22T02:50:46.140Z,8.20
2022-12-22T02:53:36.297Z,8.10
2022-12-22T02:56:25.760Z,8.20
2022-12-22T02:59:11.408Z,8.20
2022-12-22T03:02:01.328Z,8.20
2022-12-22T03:04:48.991Z,8.20
2022-12-22T03:07:34.468Z,8.20
2022-12-22T03:10:19.912Z,8.20
2022-12-22T03:13:05.223Z,8.20
2022-12-22T03:15:50.714Z,8.20
2022-12-22T03:18:36.220Z,8.30
2022-12-22T03:21:24.260Z,8.20
2022-12-22T03:24:09.619Z,8.20
2022-12-22T03:26:39.090Z,8.30
2022-12-22T03:29:05.859Z,8.30
2022-12-22T03:31:35.269Z,8.30
2022-12-22T03:34:02.315Z,8.30
2022-12-22T03:36:28.949Z,8.30
2022-12-22T03:38:55.696Z,8.30
2022-12-22T03:41:46.676Z,8.40
2022-12-22T03:44:35.137Z,8.40
2022-12-22T03:47:02.123Z,8.40
2022-12-22T03:49:28.866Z,8.40
2022-12-22T03:51:55.511Z,8.40
2022-12-22T03:54:27.210Z,8.40
2022-12-22T03:56:54.466Z,8.40
2022-12-22T03:59:25.686Z,8.40
2022-12-22T04:01:54.603Z,8.40
2022-12-22T04:04:24.172Z,8.50
2022-12-22T04:06:51.252Z,8.50
2022-12-22T04:09:18.125Z,8.50
2022-12-22T04:12:05.771Z,8.50
2022-12-22T04:14:34.766Z,8.60
2022-12-22T04:17:07.690Z,8.60
2022-12-22T04:19:34.368Z,8.50
2022-12-22T04:22:03.330Z,8.50
2022-12-22T04:24:32.192Z,8.60
2022-12-22T04:26:58.915Z,8.60
2022-12-22T04:29:28.041Z,8.60
2022-12-22T04:31:59.455Z,8.60
2022-12-22T04:34:26.145Z,8.60
2022-12-22T04:36:52.788Z,8.60
2022-12-22T04:39:19.878Z,8.60
2022-12-22T04:41:49.423Z,8.60
2022-12-22T04:44:16.061Z,8.70
2022-12-22T04:46:42.807Z,8.70
2022-12-22T04:49:09.546Z,8.70
2022-12-22T04:51:38.446Z,8.70
2022-12-22T04:54:05.442Z,8.70
2022-12-22T04:56:32.414Z,8.70
2022-12-22T04:59:01.308Z,8.70
2022-12-22T05:01:28.288Z,8.80
2022-12-22T05:03:55.235Z,8.70
2022-12-22T05:06:24.174Z,8.80
2022-12-22T05:08:53.085Z,8.80
2022-12-22T05:11:19.957Z,8.80
2022-12-22T05:13:46.655Z,8.80
2022-12-22T05:16:15.845Z,8.80
2022-12-22T05:18:45.965Z,8.80
2022-12-22T05:21:17.642Z,8.70
2022-12-22T05:23:45.596Z,8.80
2022-12-22T05:26:14.507Z,8.80
2022-12-22T05:28:42.892Z,8.80
2022-12-22T05:31:20.115Z,8.80
2022-12-22T05:33:49.723Z,10.20
2022-12-22T05:36:22.377Z,8.80
2022-12-22T05:38:51.572Z,8.80
2022-12-22T05:41:18.551Z,8.80
2022-12-22T05:43:45.219Z,8.80
2022-12-22T05:46:12.300Z,8.80
2022-12-22T05:48:40.262Z,8.80
2022-12-22T05:51:10.829Z,8.80
2022-12-22T05:53:38.582Z,8.80
2022-12-22T05:56:06.270Z,8.80
2022-12-22T05:58:33.651Z,8.80
2022-12-22T06:01:02.886Z,8.70
2022-12-22T06:03:30.384Z,8.70
2022-12-22T06:05:58.409Z,8.80
2022-12-22T06:08:28.065Z,8.70
2022-12-22T06:10:55.723Z,8.70
2022-12-22T06:13:24.788Z,8.70
2022-12-22T06:15:51.866Z,8.70
2022-12-22T06:18:18.638Z,8.60
2022-12-22T06:20:50.607Z,8.60
2022-12-22T06:23:19.437Z,8.60
2022-12-22T06:26:03.677Z,8.60
2022-12-22T06:28:34.735Z,8.60
2022-12-22T06:31:04.505Z,8.60
2022-12-22T06:33:34.436Z,8.70
2022-12-22T06:36:05.419Z,8.60
2022-12-22T06:38:37.028Z,8.70
2022-12-22T06:41:04.195Z,8.70
2022-12-22T06:43:33.097Z,8.70
2022-12-22T06:46:02.390Z,8.70
2022-12-22T06:48:29.084Z,8.60
2022-12-22T06:51:01.764Z,8.60
2022-12-22T06:53:30.668Z,8.70
2022-12-22T06:55:59.486Z,8.60
2022-12-22T06:58:30.929Z,8.60
2022-12-22T07:00:59.846Z,8.60
2022-12-22T07:03:28.742Z,8.60
2022-12-22T07:05:57.664Z,8.70
2022-12-22T07:08:24.652Z,8.60
2022-12-22T07:11:00.229Z,8.60
2022-12-22T07:13:31.581Z,8.60
2022-12-22T07:16:02.240Z,8.50
2022-12-22T07:18:31.603Z,8.50
2022-12-22T07:21:00.009Z,8.50
2022-12-22T07:23:29.559Z,8.50
2022-12-22T07:25:58.727Z,8.60
2022-12-22T07:28:25.817Z,8.50
2022-12-22T07:30:55.619Z,8.60
2022-12-22T07:33:22.442Z,8.60
2022-12-22T07:35:59.929Z,8.60
2022-12-22T07:38:31.527Z,8.60
2022-12-22T07:41:04.659Z,8.60
2022-12-22T07:43:34.335Z,9.20
2022-12-22T07:46:01.072Z,8.60
2022-12-22T07:48:51.060Z,8.70
2022-12-22T07:51:19.925Z,8.60
2022-12-22T07:53:46.591Z,8.60
2022-12-22T07:56:15.433Z,8.60
2022-12-22T07:58:42.093Z,8.60
2022-12-22T08:01:08.928Z,8.50
2022-12-22T08:03:38.222Z,8.50
2022-12-22T08:06:07.719Z,8.50
2022-12-22T08:08:39.415Z,8.50
2022-12-22T08:11:06.642Z,8.50
2022-12-22T08:13:34.246Z,8.50
2022-12-22T08:16:12.074Z,8.50
2022-12-22T08:18:41.503Z,8.50
2022-12-22T08:21:08.965Z,8.50
2022-12-22T08:23:37.963Z,8.50
2022-12-22T08:26:12.677Z,8.50
2022-12-22T08:28:49.752Z,8.60
2022-12-22T08:31:19.609Z,8.60
2022-12-22T08:33:47.810Z,8.60
2022-12-22T08:36:17.507Z,8.70
2022-12-22T08:38:44.510Z,8.80
2022-12-22T08:41:15.158Z,9.00
2022-12-22T08:43:42.111Z,9.10
2022-12-22T08:46:11.551Z,9.10
2022-12-22T08:48:43.072Z,9.20
2022-12-22T08:51:09.705Z,9.20
2022-12-22T08:54:03.871Z,9.30
2022-12-22T08:56:28.065Z,9.40
2022-12-22T08:58:54.771Z,9.60
2022-12-22T09:01:22.902Z,9.40
2022-12-22T09:03:51.104Z,9.30
2022-12-22T09:06:23.765Z,9.30
2022-12-22T09:09:01.280Z,9.30
2022-12-22T09:11:31.837Z,9.30
2022-12-22T09:14:03.264Z,9.30
2022-12-22T09:16:31.662Z,9.20
2022-12-22T09:18:58.648Z,9.20
2022-12-22T09:21:28.897Z,9.20
2022-12-22T09:23:58.666Z,9.30
2022-12-22T09:26:28.057Z,9.20
2022-12-22T09:28:57.835Z,9.20
2022-12-22T09:31:26.265Z,9.20
2022-12-22T09:33:53.623Z,9.30
2022-12-22T09:36:23.785Z,9.20
2022-12-22T09:38:53.017Z,9.30
2022-12-22T09:41:31.853Z,9.30
2022-12-22T09:44:06.762Z,11.40
2022-12-22T09:46:35.929Z,9.40
2022-12-22T09:49:04.994Z,9.50
2022-12-22T09:51:36.384Z,11.00
2022-12-22T09:54:03.710Z,9.50
2022-12-22T09:56:30.866Z,9.50
2022-12-22T09:58:59.880Z,9.60
2022-12-22T10:01:29.815Z,9.60
2022-12-22T10:04:10.218Z,9.70
2022-12-22T10:06:58.963Z,9.70
2022-12-22T10:09:49.493Z,10.20
2022-12-22T10:12:22.808Z,10.40
2022-12-22T10:14:53.656Z,10.40
2022-12-22T10:17:29.095Z,10.30
2022-12-22T10:20:14.520Z,10.30
2022-12-22T10:23:05.052Z,10.20
2022-12-22T10:26:26.247Z,10.20
2022-12-22T10:28:37.549Z,10.30
2022-12-22T10:31:15.304Z,10.40
2022-12-22T10:33:47.208Z,10.40
2022-12-22T10:36:20.442Z,10.50
2022-12-22T10:39:03.708Z,10.50
2022-12-22T10:41:39.401Z,10.60
2022-12-22T10:44:16.041Z,10.70
2022-12-22T10:46:49.205Z,10.70
2022-12-22T10:49:24.595Z,10.80
2022-12-22T10:51:59.474Z,10.80
2022-12-22T10:54:29.356Z,10.70
2022-12-22T10:57:19.285Z,10.70
2022-12-22T10:59:57.967Z,10.70
2022-12-22T11:02:29.876Z,10.60
2022-12-22T11:05:13.638Z,10.60
2022-12-22T11:07:43.082Z,10.70
2022-12-22T11:10:18.636Z,10.70
2022-12-22T11:13:21.019Z,10.70
2022-12-22T11:16:22.744Z,10.70
2022-12-22T11:19:10.875Z,10.80
2022-12-22T11:22:06.405Z,10.90
2022-12-22T11:25:01.707Z,11.10
2022-12-22T11:27:46.553Z,11.30
2022-12-22T11:30:36.048Z,11.50
2022-12-22T11:33:09.425Z,11.80
2022-12-22T11:36:01.893Z,12.20
2022-12-22T11:38:54.741Z,11.70
2022-12-22T11:41:56.015Z,11.80
2022-12-22T11:44:43.304Z,11.90
2022-12-22T11:47:20.703Z,12.00
2022-12-22T11:49:56.629Z,12.10
2022-12-22T11:53:12.252Z,12.20
2022-12-22T11:55:44.955Z,12.30
2022-12-22T11:58:23.607Z,12.30
2022-12-22T12:01:20.370Z,12.40
2022-12-22T12:03:59.746Z,12.50
2022-12-22T12:06:44.955Z,12.60
2022-12-22T12:10:07.473Z,12.70
2022-12-22T12:12:58.022Z,12.70
2022-12-22T12:15:32.926Z,12.70
2022-12-22T12:18:01.933Z,12.80
2022-12-22T12:20:56.482Z,13.00
2022-12-22T12:23:44.380Z,13.20
2022-12-22T12:26:16.962Z,13.20
2022-12-22T12:29:10.183Z,13.10
2022-12-22T12:32:05.196Z,12.90
2022-12-22T12:34:38.239Z,12.70
2022-12-22T12:37:26.578Z,12.70
2022-12-22T12:40:06.229Z,12.70
2022-12-22T12:42:40.594Z,12.60
2022-12-22T12:45:46.416Z,12.60
2022-12-22T12:48:22.789Z,12.50
2022-12-22T12:50:58.244Z,12.60
2022-12-22T12:53:31.828Z,12.50
2022-12-22T12:56:08.474Z,12.40
2022-12-22T12:58:38.130Z,12.40
2022-12-22T13:01:14.206Z,12.40
2022-12-22T13:06:53.184Z,12.30
2022-12-22T13:12:40.811Z,12.50
2022-12-22T13:15:36.501Z,12.30
2022-12-22T13:18:11.678Z,12.20
2022-12-22T13:20:40.781Z,12.20
2022-12-22T13:23:14.548Z,12.10
2022-12-22T13:25:48.652Z,12.10
2022-12-22T13:28:20.058Z,12.00
2022-12-22T13:30:57.859Z,12.00
2022-12-22T13:33:29.246Z,12.00
2022-12-22T13:35:59.327Z,12.00
2022-12-22T13:38:32.411Z,12.00
2022-12-22T13:41:02.240Z,12.00
2022-12-22T13:43:32.606Z,12.00
2022-12-22T13:46:02.021Z,11.90
2022-12-22T13:48:44.166Z,11.80
2022-12-22T13:51:20.902Z,11.60
2022-12-22T13:54:42.767Z,11.60
2022-12-22T13:57:17.167Z,11.50
2022-12-22T13:59:45.661Z,11.50
2022-12-22T14:02:12.566Z,11.50
2022-12-22T14:04:41.458Z,11.60
2022-12-22T14:07:16.819Z,11.50
2022-12-22T14:09:51.037Z,11.50
2022-12-22T14:12:42.027Z,11.40
2022-12-22T14:15:16.877Z,11.40
2022-12-22T14:17:52.679Z,11.40
2022-12-22T14:20:27.999Z,11.30
2022-12-22T14:23:01.646Z,11.30
2022-12-22T14:25:35.412Z,11.20
2022-12-22T14:28:05.674Z,11.20
2022-12-22T14:30:39.024Z,11.10
2022-12-22T14:33:35.549Z,11.10
2022-12-22T14:36:21.804Z,11.10
2022-12-22T14:38:53.729Z,11.10
2022-12-22T14:41:43.645Z,11.00
2022-12-22T14:44:13.680Z,11.00
2022-12-22T14:46:41.732Z,10.90
2022-12-22T14:49:19.111Z,10.90
2022-12-22T14:52:01.136Z,10.90
2022-12-22T14:54:28.692Z,10.80
2022-12-22T14:57:10.060Z,10.70
2022-12-22T15:00:04.711Z,10.70
2022-12-22T15:02:40.724Z,10.70
2022-12-22T15:05:29.201Z,10.60
2022-12-22T15:10:42.222Z,10.50
2022-12-22T15:13:23.486Z,10.50
2022-12-22T15:15:51.331Z,10.50
2022-12-22T15:18:28.148Z,10.50
2022-12-22T15:20:56.233Z,10.50
2022-12-22T15:23:25.422Z,10.50
2022-12-22T15:25:57.447Z,10.50
2022-12-22T15:28:24.139Z,10.40
2022-12-22T15:30:51.083Z,10.40
2022-12-22T15:33:18.852Z,10.30
2022-12-22T15:35:46.618Z,10.30
2022-12-22T15:38:21.825Z,10.30
2022-12-22T15:40:48.849Z,10.30
2022-12-22T15:43:44.759Z,10.30
2022-12-22T15:46:08.122Z,10.30
2022-12-22T15:48:38.401Z,10.30
2022-12-22T15:51:13.495Z,10.30
2022-12-22T15:53:40.184Z,10.20
2022-12-22T15:56:17.645Z,10.20
2022-12-22T15:58:44.828Z,10.20
2022-12-22T16:01:12.367Z,10.10
2022-12-22T16:03:41.481Z,10.00
2022-12-22T16:06:14.270Z,10.10
2022-12-22T16:08:45.929Z,10.10
2022-12-22T16:11:13.000Z,10.10
2022-12-22T16:13:39.805Z,10.00
2022-12-22T16:16:08.477Z,10.10
2022-12-22T16:18:35.558Z,10.00
2022-12-22T16:21:18.961Z,10.00
2022-12-22T16:23:48.954Z,10.00
2022-12-22T16:26:20.022Z,10.00
2022-12-22T16:28:51.181Z,10.00
2022-12-22T16:31:25.479Z,10.00
2022-12-22T16:33:55.182Z,10.00
2022-12-22T16:36:21.865Z,10.20
2022-12-22T16:38:48.601Z,10.00
2022-12-22T16:41:22.955Z,10.00
2022-12-22T16:46:43.767Z,9.90
2022-12-22T16:49:24.579Z,9.90
2022-12-22T16:51:56.901Z,9.90
2022-12-22T16:54:25.983Z,11.10
2022-12-22T16:56:54.961Z,9.90
2022-12-22T16:59:25.576Z,9.90
2022-12-22T17:01:57.517Z,9.80
2022-12-22T17:04:33.787Z,9.80
2022-12-22T17:07:02.191Z,9.80
2022-12-22T17:09:55.442Z,9.80
2022-12-22T17:12:25.668Z,9.80
2022-12-22T17:14:53.109Z,9.80
2022-12-22T17:17:31.108Z,9.80
2022-12-22T17:20:01.959Z,9.80
2022-12-22T17:22:33.495Z,9.80
2022-12-22T17:25:03.268Z,9.80
2022-12-22T17:27:32.341Z,9.80
2022-12-22T17:30:05.706Z,9.80
2022-12-22T17:32:32.423Z,9.80
2022-12-22T17:34:59.100Z,9.80
2022-12-22T17:37:28.514Z,9.80
2022-12-22T17:40:03.472Z,9.80
2022-12-22T17:42:31.369Z,9.80
2022-12-22T17:44:58.127Z,9.80
2022-12-22T17:47:32.188Z,9.70
2022-12-22T17:50:00.225Z,9.80
2022-12-22T17:52:28.096Z,9.70
2022-12-22T17:54:55.192Z,9.80
2022-12-22T17:57:29.180Z,9.70
2022-12-22T17:59:55.838Z,9.70
2022-12-22T18:02:26.184Z,9.70
2022-12-22T18:04:55.245Z,9.70
2022-12-22T18:07:24.670Z,9.70
2022-12-22T18:09:58.652Z,9.60
2022-12-22T18:12:29.822Z,9.60
2022-12-22T18:14:59.034Z,9.60
2022-12-22T18:17:36.040Z,9.60
2022-12-22T18:20:03.362Z,9.60
2022-12-22T18:22:30.160Z,9.60
2022-12-22T18:24:57.443Z,9.60
2022-12-22T18:27:24.432Z,9.60
2022-12-22T18:29:51.249Z,9.60
2022-12-22T18:32:26.360Z,9.50
2022-12-22T18:34:56.524Z,9.70
2022-12-22T18:37:23.306Z,9.50
2022-12-22T18:39:52.469Z,9.50
2022-12-22T18:42:23.850Z,9.50
2022-12-22T18:44:51.122Z,9.50
2022-12-22T18:47:21.337Z,9.40
2022-12-22T18:49:48.128Z,9.50
2022-12-22T18:52:22.130Z,9.50
2022-12-22T18:54:51.157Z,9.50
2022-12-22T18:57:20.288Z,9.50
2022-12-22T18:59:48.202Z,9.50
2022-12-22T19:02:26.346Z,9.50
2022-12-22T19:04:54.033Z,9.50
2022-12-22T19:07:25.283Z,9.50
2022-12-22T19:09:52.197Z,9.50
2022-12-22T19:12:25.121Z,9.50
2022-12-22T19:14:55.131Z,9.50
2022-12-22T19:17:24.878Z,9.50
2022-12-22T19:19:51.736Z,9.50
2022-12-22T19:22:18.423Z,9.50
2022-12-22T19:24:45.447Z,9.50
2022-12-22T19:27:23.740Z,9.50
2022-12-22T19:29:57.380Z,9.50
2022-12-22T19:32:34.836Z,9.50
2022-12-22T19:35:01.708Z,9.50
2022-12-22T19:37:28.397Z,9.70
2022-12-22T19:39:57.334Z,9.50
2022-12-22T19:42:25.528Z,9.90
2022-12-22T19:44:52.189Z,9.50
2022-12-22T19:47:22.043Z,9.40
2022-12-22T19:49:48.663Z,9.50
2022-12-22T19:52:15.675Z,9.40
2022-12-22T19:54:44.755Z,9.50
2022-12-22T19:57:19.440Z,9.40
2022-12-22T19:59:49.830Z,9.40
2022-12-22T20:02:33.394Z,9.40
2022-12-22T20:05:00.738Z,9.40
2022-12-22T20:07:32.876Z,9.40
2022-12-22T20:10:01.918Z,9.40
2022-12-22T20:12:37.420Z,9.40
2022-12-22T20:15:24.601Z,9.40
2022-12-22T20:17:53.272Z,9.40
2022-12-22T20:20:35.708Z,9.40
2022-12-22T20:23:11.365Z,9.40
2022-12-22T20:25:43.916Z,9.40
2022-12-22T20:28:23.073Z,9.40
2022-12-22T20:30:50.435Z,9.40
2022-12-22T20:33:19.274Z,9.30
2022-12-22T20:35:47.412Z,9.40
2022-12-22T20:38:29.440Z,9.40
2022-12-22T20:40:58.716Z,9.40
2022-12-22T20:43:28.981Z,9.40
2022-12-22T20:46:00.685Z,9.40
2022-12-22T20:48:32.788Z,9.40
2022-12-22T20:51:04.874Z,9.40
2022-12-22T20:53:32.263Z,9.40
2022-12-22T20:56:03.653Z,9.40
2022-12-22T20:58:35.094Z,9.40
2022-12-22T21:01:02.445Z,9.40
2022-12-22T21:03:29.449Z,9.60
2022-12-22T21:05:58.608Z,9.40
2022-12-22T21:08:26.963Z,9.40
2022-12-22T21:10:55.184Z,9.40
2022-12-22T21:13:22.201Z,9.40
2022-12-22T21:15:50.797Z,9.40
2022-12-22T21:18:23.055Z,9.40
2022-12-22T21:20:51.001Z,9.40
2022-12-22T21:23:17.948Z,9.40
2022-12-22T21:25:48.889Z,9.40
2022-12-22T21:28:27.833Z,9.40
2022-12-22T21:30:56.810Z,9.40
2022-12-22T21:33:23.676Z,9.40
2022-12-22T21:35:51.628Z,9.40
2022-12-22T21:38:26.734Z,9.40
2022-12-22T21:40:53.825Z,9.40
2022-12-22T21:43:20.712Z,9.40
2022-12-22T21:45:52.621Z,9.40
2022-12-22T21:48:20.963Z,9.30
2022-12-22T21:50:50.203Z,9.30
2022-12-22T21:53:22.637Z,9.30
2022-12-22T21:55:49.638Z,9.30
2022-12-22T21:58:16.826Z,9.40
2022-12-22T22:00:47.684Z,9.40
2022-12-22T22:03:15.419Z,9.40
2022-12-22T22:05:43.027Z,9.40
2022-12-22T22:08:11.639Z,9.40
2022-12-22T22:10:41.011Z,9.40
2022-12-22T22:13:08.565Z,9.30
2022-12-22T22:15:35.963Z,9.30
2022-12-22T22:18:07.174Z,9.30
2022-12-22T22:20:35.165Z,9.40
2022-12-22T22:23:02.525Z,9.40
2022-12-22T22:25:31.513Z,9.40
2022-12-22T22:28:03.671Z,9.40
2022-12-22T22:30:33.562Z,9.40
2022-12-22T22:33:00.264Z,9.40
2022-12-22T22:35:27.543Z,9.40
2022-12-22T22:37:55.076Z,9.40
2022-12-22T22:40:22.687Z,9.30
2022-12-22T22:42:49.515Z,9.30
2022-12-22T22:45:23.216Z,9.30
2022-12-22T22:47:51.555Z,9.30
2022-12-22T22:50:20.254Z,9.30
2022-12-22T22:52:47.435Z,9.30
2022-12-22T22:55:14.697Z,9.30
2022-12-22T22:57:42.280Z,9.40
2022-12-22T23:00:12.514Z,9.40
2022-12-22T23:02:42.258Z,9.40
2022-12-22T23:05:20.670Z,9.40
2022-12-22T23:07:49.508Z,9.30
2022-12-22T23:10:16.229Z,9.30
2022-12-22T23:12:45.463Z,9.30
2022-12-22T23:15:18.756Z,9.30
2022-12-22T23:17:47.707Z,9.30
2022-12-22T23:20:14.566Z,9.30
2022-12-22T23:22:41.319Z,9.30
2022-12-22T23:25:08.638Z,9.40
2022-12-22T23:27:35.470Z,9.40
2022-12-22T23:30:02.395Z,9.30
2022-12-22T23:32:31.685Z,9.40
2022-12-22T23:34:58.392Z,9.30
2022-12-22T23:37:27.488Z,9.40
2022-12-22T23:39:54.613Z,9.30
2022-12-22T23:42:22.758Z,9.30
2022-12-22T23:44:51.864Z,9.40
2022-12-22T23:47:18.523Z,9.40
2022-12-22T23:49:47.770Z,9.40
2022-12-22T23:52:14.526Z,9.40
2022-12-22T23:54:43.455Z,9.40
2022-12-22T23:57:10.115Z,9.40
2022-12-22T23:59:38.914Z,9.40
